createdAt,value
2022-08-26T00:01:38.386Z,62.49
2022-08-26T00:04:05.642Z,64.15
2022-08-26T00:06:33.037Z,63.77
2022-08-26T00:09:00.140Z,63.98
2022-08-26T00:11:27.350Z,63.57
2022-08-26T00:13:57.568Z,64.11
2022-08-26T00:16:27.133Z,64.01
2022-08-26T00:18:54.324Z,63.22
2022-08-26T00:21:21.289Z,63.17
2022-08-26T00:23:48.649Z,61.59
2022-08-26T00:26:15.631Z,60.67
2022-08-26T00:28:42.736Z,60.55
2022-08-26T00:31:11.055Z,59.37
2022-08-26T00:33:39.893Z,59.28
2022-08-26T00:36:07.558Z,59.00
2022-08-26T00:38:37.805Z,59.39
2022-08-26T00:41:05.541Z,59.26
2022-08-26T00:43:46.272Z,60.88
2022-08-26T00:46:21.697Z,58.75
2022-08-26T00:48:52.984Z,58.35
2022-08-26T00:51:29.749Z,60.74
2022-08-26T00:54:07.705Z,61.11
2022-08-26T00:56:52.943Z,61.56
2022-08-26T00:59:20.793Z,61.63
2022-08-26T01:01:47.986Z,62.35
2022-08-26T01:04:21.300Z,62.79
2022-08-26T01:06:50.599Z,63.56
2022-08-26T01:09:19.343Z,64.30
2022-08-26T01:11:49.149Z,64.85
2022-08-26T01:14:17.072Z,65.05
2022-08-26T01:16:48.104Z,65.46
2022-08-26T01:19:23.984Z,65.83
2022-08-26T01:21:59.193Z,65.99
2022-08-26T01:24:28.376Z,65.65
2022-08-26T01:27:03.470Z,65.61
2022-08-26T01:29:33.668Z,65.58
2022-08-26T01:32:00.680Z,66.09
2022-08-26T01:34:35.177Z,66.13
2022-08-26T01:37:03.901Z,66.53
2022-08-26T01:39:33.313Z,66.58
2022-08-26T01:42:03.050Z,66.91
2022-08-26T01:44:36.301Z,67.05
2022-08-26T01:47:05.036Z,67.69
2022-08-26T01:49:35.845Z,68.13
2022-08-26T01:52:04.945Z,67.98
2022-08-26T01:54:33.661Z,68.68
2022-08-26T01:57:01.723Z,68.61
2022-08-26T01:59:29.961Z,68.63
2022-08-26T02:01:57.079Z,68.92
2022-08-26T02:04:26.658Z,68.79
2022-08-26T02:06:54.502Z,68.60
2022-08-26T02:09:22.461Z,68.21
2022-08-26T02:11:51.200Z,68.29
2022-08-26T02:14:22.826Z,68.26
2022-08-26T02:16:53.458Z,67.98
2022-08-26T02:19:24.071Z,67.23
2022-08-26T02:21:53.131Z,67.93
2022-08-26T02:24:27.423Z,68.15
2022-08-26T02:26:56.213Z,68.67
2022-08-26T02:29:25.065Z,69.02
2022-08-26T02:31:53.105Z,69.20
2022-08-26T02:34:23.447Z,69.23
2022-08-26T02:36:50.792Z,69.19
2022-08-26T02:39:22.340Z,69.06
2022-08-26T02:41:49.408Z,69.24
2022-08-26T02:44:16.187Z,69.23
2022-08-26T02:46:47.038Z,69.54
2022-08-26T02:49:15.606Z,69.83
2022-08-26T02:51:43.864Z,69.43
2022-08-26T02:54:10.689Z,69.53
2022-08-26T02:56:37.584Z,69.27
2022-08-26T02:59:04.594Z,69.17
2022-08-26T03:01:34.778Z,68.70
2022-08-26T03:04:03.551Z,68.70
2022-08-26T03:06:30.920Z,68.70
2022-08-26T03:08:58.378Z,69.08
2022-08-26T03:11:27.607Z,69.20
2022-08-26T03:13:59.037Z,69.20
2022-08-26T03:16:25.882Z,69.10
2022-08-26T03:19:00.733Z,69.17
2022-08-26T03:21:27.514Z,69.87
2022-08-26T03:23:54.356Z,69.67
2022-08-26T03:26:26.301Z,69.68
2022-08-26T03:29:12.152Z,69.69
2022-08-26T03:31:39.153Z,70.32
2022-08-26T03:34:06.905Z,70.06
2022-08-26T03:36:33.753Z,70.05
2022-08-26T03:39:02.563Z,69.62
2022-08-26T03:41:29.786Z,69.95
2022-08-26T03:44:01.056Z,70.47
2022-08-26T03:46:28.813Z,70.28
2022-08-26T03:48:55.736Z,70.68
2022-08-26T03:51:22.573Z,70.15
2022-08-26T03:53:51.124Z,70.33
2022-08-26T03:56:18.298Z,69.87
2022-08-26T03:58:45.920Z,66.64
2022-08-26T04:01:16.235Z,64.44
2022-08-26T04:04:00.265Z,63.31
2022-08-26T04:06:33.647Z,63.56
2022-08-26T04:09:04.304Z,61.82
2022-08-26T04:11:34.176Z,60.72
2022-08-26T04:14:06.553Z,58.92
2022-08-26T04:16:34.902Z,58.70
2022-08-26T04:19:02.006Z,57.54
2022-08-26T04:21:28.943Z,58.01
2022-08-26T04:23:56.500Z,58.61
2022-08-26T04:26:25.759Z,58.18
2022-08-26T04:28:54.859Z,57.54
2022-08-26T04:31:22.453Z,57.60
2022-08-26T04:33:50.453Z,57.07
2022-08-26T04:36:20.147Z,56.84
2022-08-26T04:38:47.678Z,57.04
2022-08-26T04:41:15.348Z,57.12
2022-08-26T04:43:44.598Z,56.16
2022-08-26T04:46:13.889Z,56.33
2022-08-26T04:48:41.545Z,56.16
2022-08-26T04:51:09.944Z,55.55
2022-08-26T04:53:37.768Z,55.77
2022-08-26T04:56:04.943Z,54.49
2022-08-26T04:58:32.233Z,54.21
2022-08-26T05:00:59.053Z,53.23
2022-08-26T05:03:30.298Z,53.45
2022-08-26T05:05:58.550Z,53.18
2022-08-26T05:08:26.066Z,51.46
2022-08-26T05:10:56.405Z,52.49
2022-08-26T05:13:26.737Z,51.68
2022-08-26T05:15:54.377Z,51.57
2022-08-26T05:18:24.106Z,50.22
2022-08-26T05:20:53.871Z,50.74
2022-08-26T05:23:23.027Z,49.60
2022-08-26T05:25:55.764Z,47.92
2022-08-26T05:28:26.342Z,47.92
2022-08-26T05:30:53.336Z,45.93
2022-08-26T05:33:20.521Z,45.81
2022-08-26T05:35:47.764Z,46.53
2022-08-26T05:38:19.086Z,46.42
2022-08-26T05:40:49.275Z,46.63
2022-08-26T05:43:20.573Z,44.51
2022-08-26T05:45:49.847Z,44.33
2022-08-26T05:48:22.877Z,43.58
2022-08-26T05:50:53.496Z,43.25
2022-08-26T05:53:22.644Z,44.81
2022-08-26T05:55:53.315Z,44.95
2022-08-26T05:58:22.501Z,44.69
2022-08-26T06:01:01.289Z,44.79
2022-08-26T06:03:28.959Z,44.42
2022-08-26T06:05:56.779Z,43.46
2022-08-26T06:08:24.434Z,43.91
2022-08-26T06:10:55.003Z,44.17
2022-08-26T06:13:26.784Z,43.79
2022-08-26T06:15:55.136Z,43.23
2022-08-26T06:18:30.722Z,43.25
2022-08-26T06:20:58.357Z,42.28
2022-08-26T06:23:45.764Z,42.13
2022-08-26T06:26:15.684Z,41.70
2022-08-26T06:28:45.529Z,41.56
2022-08-26T06:31:13.585Z,38.92
2022-08-26T06:33:40.445Z,38.72
2022-08-26T06:36:07.978Z,37.40
2022-08-26T06:38:34.938Z,35.86
2022-08-26T06:41:03.474Z,35.76
2022-08-26T06:43:30.281Z,35.99
2022-08-26T06:46:12.403Z,36.69
2022-08-26T06:48:39.919Z,37.02
2022-08-26T06:51:13.121Z,36.97
2022-08-26T06:53:41.413Z,37.23
2022-08-26T06:56:13.686Z,36.16
2022-08-26T06:58:41.358Z,36.08
2022-08-26T07:01:20.826Z,35.86
2022-08-26T07:03:49.269Z,35.29
2022-08-26T07:06:20.849Z,35.29
2022-08-26T07:08:49.223Z,35.07
2022-08-26T07:11:16.273Z,35.44
2022-08-26T07:13:43.620Z,35.65
2022-08-26T07:16:13.591Z,35.63
2022-08-26T07:18:42.272Z,35.98
2022-08-26T07:21:14.447Z,34.13
2022-08-26T07:23:41.635Z,32.50
2022-08-26T07:26:12.123Z,32.72
2022-08-26T07:28:39.439Z,32.27
2022-08-26T07:31:11.286Z,32.52
2022-08-26T07:33:39.509Z,32.17
2022-08-26T07:36:09.111Z,32.54
2022-08-26T07:38:38.174Z,31.27
2022-08-26T07:41:06.076Z,30.98
2022-08-26T07:43:36.913Z,31.38
2022-08-26T07:46:07.623Z,31.06
2022-08-26T07:48:35.601Z,30.94
2022-08-26T07:51:03.773Z,30.96
2022-08-26T07:53:30.682Z,30.84
2022-08-26T07:55:59.121Z,31.32
2022-08-26T07:58:26.038Z,31.56
2022-08-26T08:00:53.175Z,31.47
2022-08-26T08:03:21.142Z,31.72
2022-08-26T08:05:49.154Z,31.72
2022-08-26T08:08:26.732Z,31.29
2022-08-26T08:10:56.494Z,31.67
2022-08-26T08:13:24.369Z,31.51
2022-08-26T08:15:51.474Z,31.86
2022-08-26T08:18:20.612Z,31.28
2022-08-26T08:21:04.630Z,31.54
2022-08-26T08:23:35.519Z,31.06
2022-08-26T08:26:08.337Z,30.63
2022-08-26T08:28:36.752Z,30.19
2022-08-26T08:31:03.881Z,30.17
2022-08-26T08:33:31.925Z,30.12
2022-08-26T08:35:59.911Z,30.03
2022-08-26T08:38:27.961Z,29.33
2022-08-26T08:40:54.830Z,29.43
2022-08-26T08:43:24.708Z,29.36
2022-08-26T08:45:57.922Z,29.44
2022-08-26T08:48:30.339Z,29.07
2022-08-26T08:51:25.309Z,29.55
2022-08-26T08:53:55.038Z,29.64
2022-08-26T08:56:35.264Z,29.39
2022-08-26T08:59:26.553Z,29.27
2022-08-26T09:01:56.671Z,29.03
2022-08-26T09:05:00.861Z,29.34
2022-08-26T09:07:42.441Z,28.70
2022-08-26T09:10:54.386Z,28.46
2022-08-26T09:13:25.152Z,27.94
2022-08-26T09:16:11.701Z,28.88
2022-08-26T09:19:00.205Z,28.90
2022-08-26T09:21:28.099Z,28.23
2022-08-26T09:23:56.610Z,28.22
2022-08-26T09:26:50.185Z,28.25
2022-08-26T09:29:26.602Z,27.58
2022-08-26T09:32:16.335Z,27.12
2022-08-26T09:35:07.561Z,26.99
2022-08-26T09:37:35.587Z,27.21
2022-08-26T09:40:13.374Z,27.25
2022-08-26T09:42:40.213Z,27.07
2022-08-26T09:45:10.564Z,27.05
2022-08-26T09:47:54.351Z,27.16
2022-08-26T09:50:53.480Z,27.74
2022-08-26T09:53:56.969Z,27.99
2022-08-26T09:56:23.825Z,26.83
2022-08-26T09:58:53.072Z,26.93
2022-08-26T10:01:26.781Z,26.05
2022-08-26T10:04:26.792Z,26.60
2022-08-26T10:07:07.511Z,24.83
2022-08-26T10:09:39.010Z,25.00
2022-08-26T10:12:16.001Z,24.68
2022-08-26T10:14:50.204Z,24.39
2022-08-26T10:17:30.819Z,24.65
2022-08-26T10:20:06.412Z,23.76
2022-08-26T10:22:59.448Z,23.74
2022-08-26T10:25:33.318Z,23.10
2022-08-26T10:28:30.562Z,23.44
2022-08-26T10:31:23.045Z,22.78
2022-08-26T10:34:00.059Z,22.57
2022-08-26T10:37:14.681Z,21.35
2022-08-26T10:39:46.037Z,22.44
2022-08-26T10:42:39.043Z,19.65
2022-08-26T10:45:16.724Z,17.83
2022-08-26T10:48:01.277Z,17.80
2022-08-26T10:50:32.938Z,17.89
2022-08-26T10:53:13.307Z,18.19
2022-08-26T10:55:48.761Z,16.91
2022-08-26T10:58:52.681Z,16.43
2022-08-26T11:01:43.797Z,17.17
2022-08-26T11:04:17.141Z,16.79
2022-08-26T11:06:47.028Z,15.94
2022-08-26T11:09:33.437Z,17.78
2022-08-26T11:12:05.148Z,17.30
2022-08-26T11:14:42.005Z,18.21
2022-08-26T11:17:46.945Z,17.72
2022-08-26T11:20:23.802Z,17.00
2022-08-26T11:22:51.968Z,16.72
2022-08-26T11:25:30.923Z,16.57
2022-08-26T11:28:00.622Z,15.86
2022-08-26T11:30:41.085Z,16.26
2022-08-26T11:33:08.550Z,16.57
2022-08-26T11:35:37.535Z,15.66
2022-08-26T11:38:15.645Z,15.61
2022-08-26T11:40:42.672Z,15.35
2022-08-26T11:43:23.183Z,15.19
2022-08-26T11:46:07.339Z,15.27
2022-08-26T11:48:41.477Z,14.46
2022-08-26T11:51:13.470Z,14.97
2022-08-26T11:53:43.098Z,15.22
2022-08-26T11:56:20.356Z,16.11
2022-08-26T11:58:49.085Z,17.79
2022-08-26T12:01:33.231Z,18.30
2022-08-26T12:04:03.126Z,18.79
2022-08-26T12:06:37.713Z,19.88
2022-08-26T12:09:20.340Z,20.34
2022-08-26T12:11:47.128Z,20.51
2022-08-26T12:14:20.777Z,21.05
2022-08-26T12:16:48.034Z,21.87
2022-08-26T12:19:33.453Z,20.17
2022-08-26T12:22:21.949Z,19.03
2022-08-26T12:25:05.397Z,18.24
2022-08-26T12:27:35.292Z,17.65
2022-08-26T12:30:06.791Z,17.21
2022-08-26T12:32:37.865Z,16.53
2022-08-26T12:35:24.499Z,16.34
2022-08-26T12:37:54.239Z,16.72
2022-08-26T12:40:43.307Z,17.00
2022-08-26T12:43:13.593Z,17.91
2022-08-26T12:45:44.204Z,18.43
2022-08-26T12:48:25.901Z,17.93
2022-08-26T12:50:53.320Z,17.39
2022-08-26T12:53:34.725Z,18.01
2022-08-26T12:56:20.141Z,18.61
2022-08-26T12:59:19.365Z,19.10
2022-08-26T13:01:47.007Z,18.95
2022-08-26T13:04:42.876Z,18.75
2022-08-26T13:07:14.864Z,19.00
2022-08-26T13:09:41.737Z,17.94
2022-08-26T13:12:11.693Z,17.62
2022-08-26T13:14:38.649Z,16.74
2022-08-26T13:17:05.532Z,16.26
2022-08-26T13:19:32.478Z,16.64
2022-08-26T13:22:00.828Z,16.01
2022-08-26T13:24:42.313Z,15.91
2022-08-26T13:27:11.608Z,15.53
2022-08-26T13:29:38.680Z,15.89
2022-08-26T13:32:07.908Z,15.67
2022-08-26T13:34:37.232Z,16.70
2022-08-26T13:37:04.887Z,16.98
2022-08-26T13:39:32.161Z,16.88
2022-08-26T13:42:00.231Z,16.82
2022-08-26T13:44:27.489Z,16.34
2022-08-26T13:46:54.822Z,16.47
2022-08-26T13:49:22.315Z,16.37
2022-08-26T13:51:49.087Z,16.36
2022-08-26T13:54:16.003Z,16.81
2022-08-26T13:56:43.047Z,17.60
2022-08-26T13:59:10.886Z,18.87
2022-08-26T14:01:39.894Z,19.20
2022-08-26T14:04:06.968Z,19.14
2022-08-26T14:06:33.841Z,19.24
2022-08-26T14:09:00.812Z,18.94
2022-08-26T14:11:27.715Z,19.08
2022-08-26T14:13:54.496Z,19.20
2022-08-26T14:16:25.894Z,18.54
2022-08-26T14:18:54.057Z,18.65
2022-08-26T14:21:21.378Z,18.95
2022-08-26T14:23:48.379Z,19.11
2022-08-26T14:26:27.940Z,18.78
2022-08-26T14:28:57.087Z,18.64
2022-08-26T14:31:24.274Z,19.29
2022-08-26T14:33:51.235Z,18.94
2022-08-26T14:36:32.444Z,19.79
2022-08-26T14:39:06.893Z,19.90
2022-08-26T14:41:44.963Z,19.56
2022-08-26T14:44:14.905Z,19.66
2022-08-26T14:46:45.877Z,19.62
2022-08-26T14:49:13.841Z,19.61
2022-08-26T14:51:41.231Z,19.57
2022-08-26T14:54:12.507Z,20.13
2022-08-26T14:57:01.644Z,20.09
2022-08-26T14:59:31.904Z,20.05
2022-08-26T15:02:00.515Z,20.41
2022-08-26T15:04:28.678Z,21.36
2022-08-26T15:06:57.481Z,21.14
2022-08-26T15:09:25.184Z,21.77
2022-08-26T15:11:53.263Z,21.66
2022-08-26T15:14:20.821Z,22.51
2022-08-26T15:16:53.908Z,23.18
2022-08-26T15:19:21.276Z,23.28
2022-08-26T15:21:48.808Z,24.05
2022-08-26T15:24:18.750Z,23.79
2022-08-26T15:26:46.857Z,24.98
2022-08-26T15:29:14.087Z,24.54
2022-08-26T15:31:41.206Z,24.78
2022-08-26T15:34:14.594Z,24.87
2022-08-26T15:36:44.952Z,25.30
2022-08-26T15:39:12.151Z,25.20
2022-08-26T15:41:39.565Z,24.33
2022-08-26T15:44:07.844Z,25.19
2022-08-26T15:46:35.613Z,25.00
2022-08-26T15:49:04.668Z,25.58
2022-08-26T15:51:45.736Z,25.91
2022-08-26T15:54:16.744Z,26.40
2022-08-26T15:56:44.257Z,25.83
2022-08-26T15:59:11.833Z,26.18
2022-08-26T16:01:39.773Z,27.05
2022-08-26T16:04:07.361Z,26.29
2022-08-26T16:06:37.908Z,27.40
2022-08-26T16:09:06.616Z,27.21
2022-08-26T16:11:34.012Z,27.59
2022-08-26T16:14:00.815Z,28.09
2022-08-26T16:16:27.806Z,28.77
2022-08-26T16:18:55.184Z,28.36
2022-08-26T16:21:27.874Z,29.09
2022-08-26T16:23:56.637Z,29.32
2022-08-26T16:26:32.536Z,29.60
2022-08-26T16:29:01.873Z,29.73
2022-08-26T16:31:28.934Z,29.44
2022-08-26T16:33:55.954Z,29.53
2022-08-26T16:36:22.830Z,30.59
2022-08-26T16:38:55.280Z,30.48
2022-08-26T16:41:27.925Z,30.66
2022-08-26T16:43:55.479Z,31.58
2022-08-26T16:46:25.753Z,31.51
2022-08-26T16:48:54.209Z,31.41
2022-08-26T16:51:23.601Z,31.93
2022-08-26T16:53:51.673Z,32.06
2022-08-26T16:56:21.977Z,32.45
2022-08-26T16:58:49.328Z,33.92
2022-08-26T17:01:18.079Z,34.37
2022-08-26T17:03:44.926Z,34.27
2022-08-26T17:06:12.105Z,34.94
2022-08-26T17:08:40.669Z,35.20
2022-08-26T17:11:08.467Z,35.80
2022-08-26T17:13:36.566Z,35.99
2022-08-26T17:16:08.742Z,36.63
2022-08-26T17:18:36.615Z,36.26
2022-08-26T17:21:07.043Z,37.35
2022-08-26T17:23:34.763Z,37.65
2022-08-26T17:26:01.738Z,37.28
2022-08-26T17:28:28.698Z,37.58
2022-08-26T17:30:57.534Z,38.42
2022-08-26T17:33:25.502Z,38.34
2022-08-26T17:35:53.112Z,38.13
2022-08-26T17:38:21.156Z,39.06
2022-08-26T17:40:48.869Z,39.46
2022-08-26T17:43:16.000Z,39.31
2022-08-26T17:45:43.386Z,39.50
2022-08-26T17:48:13.400Z,39.95
2022-08-26T17:50:42.619Z,39.66
2022-08-26T17:53:12.708Z,39.57
2022-08-26T17:55:45.765Z,39.89
2022-08-26T17:58:14.794Z,39.74
2022-08-26T18:00:47.409Z,40.08
2022-08-26T18:03:14.523Z,40.76
2022-08-26T18:05:42.723Z,40.95
2022-08-26T18:08:10.259Z,41.19
2022-08-26T18:10:37.374Z,41.27
2022-08-26T18:13:04.773Z,41.20
2022-08-26T18:15:31.949Z,41.49
2022-08-26T18:17:59.046Z,41.94
2022-08-26T18:20:25.877Z,42.42
2022-08-26T18:22:54.162Z,43.45
2022-08-26T18:25:21.092Z,43.00
2022-08-26T18:27:47.917Z,43.17
2022-08-26T18:30:18.418Z,43.28
2022-08-26T18:32:45.285Z,42.32
2022-08-26T18:35:12.777Z,43.10
2022-08-26T18:37:40.255Z,44.17
2022-08-26T18:40:09.717Z,43.83
2022-08-26T18:42:38.220Z,44.24
2022-08-26T18:45:09.458Z,44.47
2022-08-26T18:47:36.640Z,45.38
2022-08-26T18:50:04.896Z,44.78
2022-08-26T18:52:32.659Z,45.16
2022-08-26T18:54:59.687Z,45.62
2022-08-26T18:57:26.614Z,45.81
2022-08-26T18:59:53.406Z,45.32
2022-08-26T19:02:20.383Z,46.29
2022-08-26T19:04:47.334Z,46.58
2022-08-26T19:07:14.597Z,46.46
2022-08-26T19:09:41.401Z,46.88
2022-08-26T19:12:08.776Z,47.59
2022-08-26T19:14:36.303Z,47.17
2022-08-26T19:17:04.061Z,47.40
2022-08-26T19:19:31.761Z,47.34
2022-08-26T19:21:58.669Z,47.43
2022-08-26T19:24:26.026Z,48.14
2022-08-26T19:26:58.415Z,48.28
2022-08-26T19:29:28.354Z,48.67
2022-08-26T19:31:55.405Z,48.55
2022-08-26T19:34:22.883Z,48.50
2022-08-26T19:36:51.820Z,50.00
2022-08-26T19:39:19.279Z,49.33
2022-08-26T19:41:46.834Z,49.92
2022-08-26T19:44:36.945Z,50.59
2022-08-26T19:47:04.520Z,49.83
2022-08-26T19:49:31.939Z,50.22
2022-08-26T19:51:58.824Z,51.10
2022-08-26T19:54:25.675Z,51.18
2022-08-26T19:56:52.639Z,51.58
2022-08-26T19:59:20.171Z,51.42
2022-08-26T20:01:47.346Z,51.95
2022-08-26T20:04:27.966Z,52.45
2022-08-26T20:06:55.656Z,52.34
2022-08-26T20:09:25.740Z,52.59
2022-08-26T20:11:52.541Z,53.33
2022-08-26T20:14:23.655Z,53.70
2022-08-26T20:16:50.533Z,54.28
2022-08-26T20:19:37.685Z,54.47
2022-08-26T20:22:05.232Z,54.27
2022-08-26T20:24:32.710Z,54.76
2022-08-26T20:27:03.311Z,55.37
2022-08-26T20:29:33.193Z,54.77
2022-08-26T20:32:00.693Z,55.37
2022-08-26T20:34:28.149Z,55.20
2022-08-26T20:36:55.073Z,55.43
2022-08-26T20:39:22.177Z,55.65
2022-08-26T20:41:49.640Z,56.16
2022-08-26T20:44:17.695Z,54.52
2022-08-26T20:46:44.958Z,54.90
2022-08-26T20:49:13.497Z,52.25
2022-08-26T20:51:42.838Z,53.07
2022-08-26T20:54:12.074Z,51.86
2022-08-26T20:56:39.518Z,50.35
2022-08-26T20:59:07.514Z,53.76
2022-08-26T21:01:36.779Z,53.14
2022-08-26T21:04:12.720Z,54.46
2022-08-26T21:06:40.576Z,54.51
2022-08-26T21:09:14.099Z,52.58
2022-08-26T21:11:43.444Z,54.71
2022-08-26T21:14:16.047Z,53.10
2022-08-26T21:16:45.637Z,53.49
2022-08-26T21:19:15.169Z,52.28
2022-08-26T21:21:46.939Z,53.07
2022-08-26T21:24:14.360Z,51.52
2022-08-26T21:26:41.563Z,53.39
2022-08-26T21:29:09.874Z,53.81
2022-08-26T21:31:42.270Z,54.14
2022-08-26T21:34:12.871Z,53.69
2022-08-26T21:36:39.751Z,54.00
2022-08-26T21:39:11.309Z,54.03
2022-08-26T21:41:39.739Z,53.91
2022-08-26T21:44:06.765Z,53.93
2022-08-26T21:46:36.399Z,53.71
2022-08-26T21:49:07.495Z,54.27
2022-08-26T21:51:37.408Z,54.86
2022-08-26T21:54:10.834Z,55.17
2022-08-26T21:56:47.174Z,54.60
2022-08-26T21:59:16.385Z,54.53
2022-08-26T22:01:43.587Z,55.32
2022-08-26T22:04:10.754Z,55.51
2022-08-26T22:06:47.007Z,55.31
2022-08-26T22:09:17.079Z,55.09
2022-08-26T22:11:44.609Z,55.92
2022-08-26T22:14:11.974Z,55.55
2022-08-26T22:16:39.184Z,55.56
2022-08-26T22:19:06.529Z,51.12
2022-08-26T22:21:35.701Z,50.40
2022-08-26T22:24:03.728Z,47.79
2022-08-26T22:26:32.773Z,48.62
2022-08-26T22:29:01.526Z,50.31
2022-08-26T22:31:38.352Z,51.15
2022-08-26T22:34:08.881Z,50.77
2022-08-26T22:36:43.154Z,52.18
2022-08-26T22:39:13.411Z,52.58
2022-08-26T22:41:42.117Z,52.70
2022-08-26T22:44:10.395Z,51.22
2022-08-26T22:46:38.689Z,49.36
2022-08-26T22:49:07.768Z,52.09
2022-08-26T22:51:34.712Z,51.84
2022-08-26T22:54:01.747Z,51.86
2022-08-26T22:56:28.567Z,47.60
2022-08-26T22:58:55.388Z,50.50
2022-08-26T23:01:22.324Z,49.67
2022-08-26T23:03:49.384Z,49.65
2022-08-26T23:06:16.629Z,49.29
2022-08-26T23:08:46.342Z,46.59
2022-08-26T23:11:15.040Z,49.01
2022-08-26T23:13:42.451Z,45.01
2022-08-26T23:16:11.986Z,46.30
2022-08-26T23:18:40.913Z,45.23
2022-08-26T23:21:08.281Z,44.34
2022-08-26T23:23:35.457Z,43.23
2022-08-26T23:26:06.159Z,42.70
2022-08-26T23:28:33.525Z,41.94
2022-08-26T23:31:00.500Z,42.14
2022-08-26T23:33:47.836Z,43.66
2022-08-26T23:36:18.115Z,42.85
2022-08-26T23:38:52.401Z,44.30
2022-08-26T23:41:22.283Z,45.65
2022-08-26T23:43:49.636Z,47.19
2022-08-26T23:46:16.545Z,48.24
2022-08-26T23:48:43.764Z,46.13
2022-08-26T23:51:29.951Z,47.93
2022-08-26T23:53:57.998Z,48.72
2022-08-26T23:56:25.177Z,49.11
2022-08-26T23:58:53.893Z,47.25
